Time;durP1;ratioP1;P1;durP2;ratioP2;P2;SDS_P1;SDS_P2;PMS_P1;PMS_P2;Temp;Humidity;BMP_temperature;BMP_pressure;BME280_temperature;BME280_humidity;BME280_pressure;Samples;Min_cycle;Max_cycle;Signal;HPM_P1;HPM_P2
2021/01/05 00:01:48;;;;;;;;;24.50;24.50;;;;;21.06;57.82;99379.03;5022541;28;10577;-71
2021/01/05 00:04:17;;;;;;;;;22.25;22.25;;;;;21.16;57.62;99400.16;5019162;28;10752;-71
2021/01/05 00:06:45;;;;;;;;;27.50;20.75;;;;;21.21;57.44;99401.09;5021066;28;11395;-71
2021/01/05 00:09:13;;;;;;;;;27.00;23.25;;;;;21.15;57.56;99395.09;5023203;28;10557;-71
2021/01/05 00:12:13;;;;;;;;;28.00;24.75;;;;;21.26;57.47;99423.19;5021690;28;10827;-71
2021/01/05 00:14:43;;;;;;;;;19.50;19.50;;;;;21.21;57.52;99401.09;5021418;28;11047;-71
2021/01/05 00:17:14;;;;;;;;;24.75;20.25;;;;;21.34;57.68;99424.28;5022115;28;10605;-71
2021/01/05 00:19:42;;;;;;;;;27.00;24.00;;;;;21.30;57.64;99415.28;5026723;28;10564;-71
2021/01/05 00:22:10;;;;;;;;;27.25;25.25;;;;;21.26;57.59;99411.66;5020745;28;10806;-71
2021/01/05 00:24:39;;;;;;;;;25.25;24.75;;;;;21.36;56.44;99432.78;5021934;28;11300;-71
2021/01/05 00:27:08;;;;;;;;;26.00;22.00;;;;;21.34;57.68;99437.69;5020096;28;10726;-70
2021/01/05 00:29:37;;;;;;;;;29.25;26.75;;;;;21.31;57.29;99449.84;5020369;28;10700;-70
2021/01/05 00:32:17;;;;;;;;;31.75;29.00;;;;;21.30;56.06;99444.81;5022400;28;10960;-69
2021/01/05 00:34:46;;;;;;;;;26.50;24.00;;;;;21.25;56.84;99437.72;5001049;28;10931;-69
2021/01/05 00:37:16;;;;;;;;;24.25;22.50;;;;;21.19;57.49;99441.66;5018644;28;10905;-69
2021/01/05 00:39:45;;;;;;;;;23.50;21.00;;;;;21.27;58.06;99448.91;5001197;28;10809;-69
2021/01/05 00:42:13;;;;;;;;;24.25;22.25;;;;;21.34;57.26;99459.16;5011639;28;10837;-72
2021/01/05 00:44:42;;;;;;;;;23.50;21.00;;;;;21.32;58.37;99464.06;5020776;28;11285;-73
2021/01/05 00:47:12;;;;;;;;;27.50;26.50;;;;;21.34;56.41;99464.53;5024342;28;10722;-71
2021/01/05 00:49:40;;;;;;;;;23.75;23.50;;;;;21.24;55.42;99452.25;5023990;28;10722;-73
2021/01/05 00:52:08;;;;;;;;;11.00;11.00;;;;;21.31;57.09;99462.47;5000565;28;10738;-74
2021/01/05 00:54:37;;;;;;;;;24.50;22.50;;;;;21.24;56.18;99462.97;5019883;28;10557;-78
2021/01/05 00:57:09;;;;;;;;;22.00;22.00;;;;;21.05;56.32;99441.03;5016652;28;10712;-72
2021/01/05 00:59:38;;;;;;;;;16.75;15.00;;;;;21.20;57.24;99478.09;5018767;28;11215;-72
2021/01/05 01:02:07;;;;;;;;;19.00;18.50;;;;;21.30;56.70;99479.69;5019791;28;10686;-73
2021/01/05 01:04:38;;;;;;;;;23.25;19.75;;;;;21.21;56.97;99462.78;5016211;28;10605;-72
2021/01/05 01:07:07;;;;;;;;;21.00;16.75;;;;;21.36;57.11;99489.16;5020994;28;10642;-73
2021/01/05 01:09:35;;;;;;;;;20.00;20.00;;;;;21.43;55.99;99495.59;5017343;28;10412;-72
2021/01/05 01:12:16;;;;;;;;;21.00;21.00;;;;;21.48;56.65;99495.44;5017961;28;10566;-72
2021/01/05 01:14:46;;;;;;;;;24.75;21.25;;;;;21.56;56.76;99498.41;5018291;28;10525;-72
2021/01/05 01:17:15;;;;;;;;;15.75;15.75;;;;;21.46;54.76;99476.19;5017238;28;11281;-74
2021/01/05 01:19:44;;;;;;;;;21.50;20.00;;;;;21.72;55.00;99507.50;5018796;28;10427;-74
2021/01/05 01:22:12;;;;;;;;;24.25;22.25;;;;;21.69;55.55;99497.41;5019627;28;10701;-75
2021/01/05 01:24:41;;;;;;;;;25.00;21.25;;;;;21.83;55.96;99513.31;5012885;28;10576;-73
2021/01/05 01:27:19;;;;;;;;;22.25;20.75;;;;;21.86;55.87;99510.78;5018326;28;10736;-74
2021/01/05 01:29:47;;;;;;;;;23.50;21.00;;;;;21.89;56.09;99501.28;5009659;28;10578;-71
2021/01/05 01:32:16;;;;;;;;;22.00;17.50;;;;;21.97;55.74;99517.38;5009611;28;10747;-76
2021/01/05 01:34:44;;;;;;;;;23.50;21.50;;;;;22.02;54.54;99516.44;5009064;28;10629;-73
2021/01/05 01:37:16;;;;;;;;;22.25;20.25;;;;;22.05;55.74;99524.63;5010364;28;10663;-73
2021/01/05 01:39:46;;;;;;;;;21.25;18.00;;;;;21.93;55.40;99515.66;5010985;28;10728;-73
2021/01/05 01:42:18;;;;;;;;;19.75;17.00;;;;;22.05;54.70;99519.25;5011502;28;10543;-73
2021/01/05 01:44:48;;;;;;;;;21.75;17.25;;;;;22.02;55.81;99508.38;5011678;28;10351;-72
2021/01/05 01:47:22;;;;;;;;;22.50;20.00;;;;;22.18;55.84;99533.56;5011234;28;10437;-73
2021/01/05 01:49:59;;;;;;;;;18.75;16.75;;;;;22.09;55.08;99503.28;5011900;28;10278;-72
2021/01/05 01:52:42;;;;;;;;;18.25;18.25;;;;;22.27;55.48;99528.13;5011412;28;10358;-70
2021/01/05 01:55:26;;;;;;;;;15.00;12.75;;;;;22.34;53.43;99523.03;5011614;28;10421;-71
2021/01/05 01:58:19;;;;;;;;;24.00;20.75;;;;;22.33;54.70;99511.50;5010945;28;10229;-73
2021/01/05 02:01:19;;;;;;;;;15.75;14.00;;;;;22.45;54.96;99530.38;5011070;28;10456;-74
2021/01/05 02:04:13;;;;;;;;;25.25;23.00;;;;;22.45;53.34;99516.94;5011598;28;10387;-74
2021/01/05 02:07:06;;;;;;;;;21.00;20.25;;;;;22.56;53.89;99527.31;5011079;28;10522;-73
2021/01/05 02:09:54;;;;;;;;;24.50;23.00;;;;;22.60;54.48;99529.03;5011786;28;10466;-71
2021/01/05 02:12:35;;;;;;;;;24.00;22.00;;;;;22.65;53.23;99528.06;5011943;28;10537;-73
2021/01/05 02:15:15;;;;;;;;;6.75;4.25;;;;;22.70;53.96;99525.16;5011481;28;10515;-71
2021/01/05 02:18:06;;;;;;;;;20.00;14.75;;;;;22.76;52.83;99519.25;5011031;28;10447;-72
2021/01/05 02:20:53;;;;;;;;;17.50;16.00;;;;;22.79;53.09;99525.91;5011171;28;10287;-72
2021/01/05 02:23:38;;;;;;;;;19.50;18.50;;;;;22.81;52.96;99525.59;5011222;28;10091;-72
2021/01/05 02:26:21;;;;;;;;;17.00;17.00;;;;;22.86;53.30;99528.09;5011839;28;10310;-72
2021/01/05 02:29:08;;;;;;;;;23.75;20.25;;;;;22.89;52.78;99519.34;5015272;28;10098;-72
2021/01/05 02:32:01;;;;;;;;;19.25;17.00;;;;;22.93;52.75;99522.97;5015056;28;10293;-72
2021/01/05 02:34:46;;;;;;;;;18.75;17.75;;;;;22.96;52.79;99520.41;5015038;28;10349;-72
2021/01/05 02:37:28;;;;;;;;;19.25;19.25;;;;;22.95;52.88;99505.38;5015208;28;10224;-72
2021/01/05 02:40:12;;;;;;;;;21.00;19.25;;;;;23.03;52.89;99514.50;5014248;28;11095;-72
2021/01/05 02:43:05;;;;;;;;;22.00;18.25;;;;;23.07;52.56;99505.44;5014834;28;10385;-72
2021/01/05 02:45:52;;;;;;;;;20.50;17.75;;;;;23.09;52.63;99508.56;5014561;28;10282;-72
2021/01/05 02:48:44;;;;;;;;;16.75;15.25;;;;;23.13;52.63;99503.31;5014721;28;10111;-72
2021/01/05 02:51:37;;;;;;;;;14.00;10.75;;;;;23.17;53.31;99504.22;5014944;28;10242;-72
2021/01/05 02:54:20;;;;;;;;;18.50;16.50;;;;;23.22;52.76;99503.22;5014410;28;9944;-72
2021/01/05 02:57:01;;;;;;;;;16.50;15.50;;;;;23.27;52.61;99503.81;5014593;28;10115;-72
2021/01/05 02:59:45;;;;;;;;;16.75;15.50;;;;;23.30;52.66;99503.16;5014283;28;9954;-72
2021/01/05 03:02:38;;;;;;;;;15.75;15.25;;;;;23.33;53.01;99501.69;5014776;28;10095;-71
2021/01/05 03:05:09;;;;;;;;;11.50;10.00;;;;;23.25;52.35;99481.81;5009785;28;9872;-72
2021/01/05 03:07:37;;;;;;;;;9.50;9.00;;;;;23.39;52.44;99494.97;5014113;28;10107;-73
2021/01/05 03:10:11;;;;;;;;;14.75;12.25;;;;;23.47;52.46;99493.28;5014182;28;10171;-73
2021/01/05 03:12:57;;;;;;;;;17.25;14.75;;;;;23.51;52.54;99491.50;5013984;28;10674;-72
2021/01/05 03:15:32;;;;;;;;;18.50;18.00;;;;;23.56;52.33;99494.78;5017148;28;9913;-72
2021/01/05 03:18:18;;;;;;;;;19.75;15.75;;;;;23.54;52.37;99480.09;5021679;28;10102;-72
2021/01/05 03:21:02;;;;;;;;;16.25;14.50;;;;;23.63;52.31;99495.03;5020745;28;9782;-71
2021/01/05 03:23:33;;;;;;;;;16.50;16.25;;;;;23.67;52.21;99487.06;5014858;28;10657;-72
2021/01/05 03:26:07;;;;;;;;;13.75;12.50;;;;;23.67;52.37;99479.78;5020684;28;9928;-72
2021/01/05 03:28:37;;;;;;;;;17.50;16.00;;;;;23.61;52.55;99464.16;4996660;28;9822;-72
2021/01/05 03:31:15;;;;;;;;;15.25;15.25;;;;;23.73;52.42;99475.72;5013815;28;9866;-71
2021/01/05 03:33:44;;;;;;;;;14.50;14.50;;;;;23.76;52.38;99466.19;5013830;28;10062;-74
2021/01/05 03:36:12;;;;;;;;;18.75;18.75;;;;;23.74;52.19;99457.66;5022717;28;9841;-72
2021/01/05 03:38:41;;;;;;;;;22.25;20.75;;;;;23.83;52.34;99457.56;5022155;28;10043;-72
2021/01/05 03:41:09;;;;;;;;;14.50;14.50;;;;;23.87;52.27;99445.78;5020838;28;9967;-73
2021/01/05 03:43:37;;;;;;;;;12.75;12.75;;;;;23.91;52.16;99452.06;5033359;28;9794;-73
2021/01/05 03:46:06;;;;;;;;;24.50;18.75;;;;;23.95;52.28;99441.38;5033117;28;9779;-73
2021/01/05 03:48:34;;;;;;;;;21.25;16.50;;;;;23.99;51.97;99440.38;5033278;28;9875;-72
2021/01/05 03:51:03;;;;;;;;;18.75;16.25;;;;;24.04;51.92;99433.97;5033151;28;10638;-72
2021/01/05 03:53:31;;;;;;;;;18.25;15.75;;;;;24.05;51.84;99430.16;5033040;28;10207;-72
2021/01/05 03:56:00;;;;;;;;;12.25;11.00;;;;;24.11;51.77;99430.69;5023412;28;9785;-72
2021/01/05 03:58:30;;;;;;;;;18.25;16.25;;;;;23.94;51.68;99391.31;5028839;28;9792;-72
2021/01/05 04:00:58;;;;;;;;;18.75;16.00;;;;;24.11;51.65;99415.31;5033072;28;9922;-73
2021/01/05 04:03:28;;;;;;;;;18.75;16.75;;;;;24.17;51.73;99399.69;5015223;28;9864;-72
2021/01/05 04:05:57;;;;;;;;;15.75;15.75;;;;;24.28;51.66;99404.28;5031486;28;9956;-72
2021/01/05 04:08:29;;;;;;;;;17.25;14.00;;;;;24.30;51.54;99398.56;5032255;28;9939;-72
2021/01/05 04:10:57;;;;;;;;;17.75;17.75;;;;;24.36;51.42;99397.19;5032835;28;9861;-72
2021/01/05 04:13:26;;;;;;;;;17.25;14.75;;;;;24.43;51.41;99388.53;5032402;28;9857;-72
2021/01/05 04:15:57;;;;;;;;;14.50;12.75;;;;;24.35;51.50;99363.28;5032633;28;9917;-72
2021/01/05 04:18:26;;;;;;;;;17.00;15.50;;;;;24.50;51.45;99365.22;5031342;28;9636;-73
2021/01/05 04:20:54;;;;;;;;;18.25;15.75;;;;;24.55;51.22;99365.00;5031547;28;9769;-72
2021/01/05 04:23:23;;;;;;;;;19.00;18.00;;;;;24.63;51.12;99376.75;5029525;28;9699;-72
2021/01/05 04:25:52;;;;;;;;;20.75;17.75;;;;;24.63;51.07;99352.47;5010685;28;9789;-72
2021/01/05 04:28:20;;;;;;;;;20.50;18.50;;;;;24.68;51.10;99361.09;5017544;28;10521;-73
2021/01/05 04:30:49;;;;;;;;;21.25;18.50;;;;;24.63;50.91;99342.47;5020414;28;9960;-72
2021/01/05 04:33:17;;;;;;;;;23.25;20.00;;;;;24.75;50.82;99352.38;5021654;28;10507;-71
2021/01/05 04:35:48;;;;;;;;;16.00;13.25;;;;;24.85;50.64;99362.66;5024481;28;9821;-71
2021/01/05 04:38:17;;;;;;;;;18.00;16.75;;;;;24.79;50.80;99333.59;5020440;28;10465;-71
2021/01/05 04:40:47;;;;;;;;;14.75;14.75;;;;;24.91;50.58;99334.31;5016841;28;9880;-72
2021/01/05 04:43:20;;;;;;;;;17.75;14.00;;;;;25.01;49.99;99339.22;5005235;28;9784;-72
2021/01/05 04:46:04;;;;;;;;;22.25;14.00;;;;;25.06;49.95;99331.97;5020063;28;9497;-72
2021/01/05 04:48:56;;;;;;;;;21.25;18.25;;;;;25.18;49.91;99332.69;5019822;28;9661;-71
2021/01/05 04:51:40;;;;;;;;;16.75;16.75;;;;;25.26;50.36;99331.72;5019505;28;9706;-71
2021/01/05 04:54:25;;;;;;;;;18.00;15.00;;;;;25.32;50.15;99316.03;5019188;28;9728;-71
2021/01/05 04:57:08;;;;;;;;;16.00;14.33;;;;;25.36;49.99;99325.00;5023867;28;9658;-72
2021/01/05 04:59:49;;;;;;;;;17.00;14.67;;;;;25.41;50.08;99322.03;5022951;28;9493;-72
2021/01/05 05:02:30;;;;;;;;;17.75;17.75;;;;;25.40;50.36;99308.88;5023210;28;9332;-72
2021/01/05 05:05:16;;;;;;;;;13.50;13.50;;;;;25.44;49.98;99307.03;5017815;28;9544;-72
2021/01/05 05:07:45;;;;;;;;;13.00;12.67;;;;;25.49;49.61;99302.16;5017712;28;9469;-72
2021/01/05 05:10:21;;;;;;;;;19.25;16.00;;;;;25.55;49.73;99294.56;5009017;28;9699;-72
2021/01/05 05:13:13;;;;;;;;;17.00;16.67;;;;;25.58;49.62;99288.44;5020379;28;9533;-72
2021/01/05 05:15:46;;;;;;;;;19.75;17.50;;;;;25.62;49.25;99278.50;5018410;28;9499;-73
2021/01/05 05:18:38;;;;;;;;;20.50;20.00;;;;;25.67;49.21;99272.84;5017862;28;9568;-72
2021/01/05 05:21:16;;;;;;;;;15.33;13.00;;;;;25.72;49.50;99264.47;5017953;28;9583;-72
2021/01/05 05:24:01;;;;;;;;;18.33;16.00;;;;;25.81;48.77;99253.44;5022303;28;9353;-72
2021/01/05 05:26:48;;;;;;;;;24.00;18.00;;;;;25.87;49.07;99242.00;5020020;28;9374;-72
2021/01/05 05:29:54;;;;;;;;;19.67;16.67;;;;;25.93;48.91;99237.88;5020317;28;9390;-73
2021/01/05 05:32:36;;;;;;;;;17.67;14.33;;;;;25.88;48.87;99207.66;5020975;28;9345;-73
2021/01/05 05:35:04;;;;;;;;;16.00;15.67;;;;;26.02;48.83;99222.19;5007960;28;10037;-72
2021/01/05 05:37:48;;;;;;;;;14.33;14.33;;;;;26.05;48.55;99217.97;5018131;28;9407;-73
2021/01/05 05:40:23;;;;;;;;;16.33;15.67;;;;;26.13;47.75;99206.16;5013916;28;9198;-73
2021/01/05 05:43:08;;;;;;;;;26.00;23.50;;;;;26.29;48.73;99203.34;5009685;28;9161;-73
2021/01/05 05:45:54;;;;;;;;;17.00;17.00;;;;;26.39;48.78;99197.38;5020489;28;9522;-76
2021/01/05 05:48:35;;;;;;;;;23.00;17.33;;;;;26.45;48.84;99185.13;5001243;28;10020;-72
2021/01/05 05:51:20;;;;;;;;;20.67;12.67;;;;;26.50;47.16;99181.31;4999077;28;9189;-72
2021/01/05 05:54:06;;;;;;;;;13.00;12.00;;;;;26.55;48.31;99170.19;5020560;28;8989;-72
2021/01/05 05:56:52;;;;;;;;;16.67;14.67;;;;;26.58;47.64;99162.13;5020472;28;9325;-71
2021/01/05 05:59:31;;;;;;;;;13.00;13.00;;;;;26.60;48.19;99159.06;5025291;28;9040;-72
2021/01/05 06:02:06;;;;;;;;;12.67;12.00;;;;;26.49;47.57;99145.38;5020743;28;9172;-72
2021/01/05 06:04:37;;;;;;;;;14.67;13.00;;;;;26.64;47.08;99147.16;5024720;28;8949;-72
2021/01/05 06:07:06;;;;;;;;;13.75;11.25;;;;;26.70;47.85;99153.03;5030339;28;8944;-73
2021/01/05 06:09:34;;;;;;;;;11.67;11.67;;;;;26.76;48.27;99157.00;5033965;28;8861;-73
2021/01/05 06:12:05;;;;;;;;;19.00;14.00;;;;;26.76;47.68;99148.88;5033596;28;9018;-72
2021/01/05 06:14:34;;;;;;;;;14.00;12.00;;;;;26.84;48.01;99145.13;5034422;28;8952;-73
2021/01/05 06:17:02;;;;;;;;;15.25;13.25;;;;;26.88;46.50;99148.66;5034306;28;9005;-72
2021/01/05 06:19:30;;;;;;;;;14.75;13.75;;;;;26.88;47.67;99126.22;5030374;28;8846;-72
2021/01/05 06:21:59;;;;;;;;;18.50;16.00;;;;;27.00;47.39;99136.88;5032241;28;8845;-72
2021/01/05 06:24:27;;;;;;;;;22.67;19.67;;;;;27.04;47.49;99139.63;5034333;28;9014;-73
2021/01/05 06:26:55;;;;;;;;;19.00;19.00;;;;;27.04;47.10;99137.69;5034413;28;9244;-72
2021/01/05 06:29:23;;;;;;;;;19.33;16.00;;;;;27.05;46.93;99133.06;5034545;28;9174;-73
2021/01/05 06:31:52;;;;;;;;;18.67;17.33;;;;;26.97;47.22;99113.25;5032788;28;9005;-72
2021/01/05 06:34:21;;;;;;;;;15.67;15.33;;;;;27.12;47.29;99119.63;5033447;28;9088;-72
2021/01/05 06:36:49;;;;;;;;;19.67;18.00;;;;;27.01;47.09;99100.53;5034272;28;8965;-75
2021/01/05 06:39:17;;;;;;;;;18.33;17.00;;;;;27.16;47.29;99113.09;5032059;28;9104;-76
2021/01/05 06:41:46;;;;;;;;;16.75;14.50;;;;;27.14;45.72;99103.78;5033799;28;9017;-76
2021/01/05 06:44:14;;;;;;;;;17.50;13.50;;;;;27.26;47.27;99098.91;5030329;28;8911;-75
2021/01/05 06:46:43;;;;;;;;;17.50;14.50;;;;;27.33;46.97;99100.13;5023743;28;8881;-73
2021/01/05 06:49:11;;;;;;;;;16.75;14.75;;;;;27.35;46.82;99098.59;5019291;28;8872;-74
2021/01/05 06:51:40;;;;;;;;;13.67;12.33;;;;;27.39;46.95;99098.63;5013967;28;8844;-75
2021/01/05 06:54:08;;;;;;;;;9.25;9.25;;;;;27.45;45.16;99094.44;5030499;28;8940;-74
2021/01/05 06:56:49;;;;;;;;;10.50;9.50;;;;;27.54;45.27;99081.38;5019842;28;8847;-74
2021/01/05 06:59:18;;;;;;;;;13.00;12.50;;;;;27.66;46.72;99067.59;5022213;28;8846;-76
2021/01/05 07:01:55;;;;;;;;;11.75;8.00;;;;;27.76;46.29;99066.94;5015820;28;8840;-77
2021/01/05 07:04:25;;;;;;;;;20.25;15.25;;;;;27.83;45.73;99075.13;5017029;28;8852;-74
2021/01/05 07:06:53;;;;;;;;;19.50;17.25;;;;;27.88;45.84;99076.72;5023896;28;9518;-75
2021/01/05 07:09:27;;;;;;;;;14.00;14.00;;;;;27.90;44.64;99071.69;5020557;28;8840;-75
2021/01/05 07:11:55;;;;;;;;;14.25;14.25;;;;;27.92;45.71;99062.03;5023093;28;8892;-75
2021/01/05 07:14:28;;;;;;;;;17.50;17.00;;;;;27.93;45.47;99063.59;5022552;28;8845;-76
2021/01/05 07:16:57;;;;;;;;;24.25;16.50;;;;;27.91;45.17;99057.78;5022150;28;8836;-75
2021/01/05 07:19:25;;;;;;;;;16.25;15.00;;;;;28.09;45.45;99063.34;5019238;28;8932;-76
2021/01/05 07:21:54;;;;;;;;;22.50;19.25;;;;;28.12;45.47;99048.25;5017650;28;8844;-76
2021/01/05 07:24:22;;;;;;;;;31.00;22.33;;;;;28.23;45.59;99057.28;5018477;28;8844;-73
2021/01/05 07:26:51;;;;;;;;;19.75;18.50;;;;;28.24;44.80;99056.13;5018435;28;8998;-72
2021/01/05 07:29:24;;;;;;;;;14.00;12.25;;;;;28.17;43.47;99054.09;5011877;28;8838;-74
2021/01/05 07:31:52;;;;;;;;;10.50;9.25;;;;;28.21;44.14;99048.72;5016788;28;8859;-74
2021/01/05 07:34:20;;;;;;;;;13.00;12.50;;;;;28.28;45.22;99051.50;5024987;28;9596;-73
2021/01/05 07:37:02;;;;;;;;;11.25;10.50;;;;;28.31;45.28;99048.03;5028828;28;8965;-74
2021/01/05 07:39:33;;;;;;;;;3.00;3.00;;;;;28.33;45.13;99047.66;5019605;28;8859;-71
2021/01/05 07:42:16;;;;;;;;;9.00;7.00;;;;;28.31;45.07;99050.75;5023462;28;8849;-74
2021/01/05 07:44:47;;;;;;;;;9.00;9.00;;;;;28.27;43.64;99041.81;5017570;28;8912;-74
2021/01/05 07:47:17;;;;;;;;;18.75;14.50;;;;;28.17;44.97;99024.25;5019465;28;8863;-74
2021/01/05 07:49:46;;;;;;;;;8.25;7.75;;;;;28.34;44.99;99038.34;5020146;28;8825;-74
2021/01/05 07:52:38;;;;;;;;;8.50;7.25;;;;;28.30;44.83;99035.63;5020849;28;8864;-74
2021/01/05 07:55:12;;;;;;;;;16.50;13.00;;;;;28.33;44.40;99040.28;5018175;28;8845;-75
2021/01/05 07:57:41;;;;;;;;;16.75;16.75;;;;;28.34;44.79;99031.00;5017368;28;8856;-75
2021/01/05 08:00:26;;;;;;;;;38.50;33.50;;;;;28.44;44.97;99034.94;5017654;28;9511;-77
2021/01/05 08:02:56;;;;;;;;;20.50;14.75;;;;;28.41;44.62;99025.63;5019097;28;9792;-72
2021/01/05 08:05:27;;;;;;;;;14.50;10.75;;;;;28.24;44.72;99002.66;5018241;28;8845;-72
2021/01/05 08:07:57;;;;;;;;;11.50;11.00;;;;;28.47;44.35;99026.81;5020526;28;8916;-76
2021/01/05 08:10:32;;;;;;;;;6.25;6.00;;;;;28.43;44.16;99027.94;5018966;28;8877;-75
2021/01/05 08:13:02;;;;;;;;;68.75;57.25;;;;;28.47;44.12;99034.97;5019740;28;9543;-73
2021/01/05 08:15:30;;;;;;;;;14.25;12.25;;;;;28.45;44.14;99023.69;5019802;28;11544;-74
2021/01/05 08:18:00;;;;;;;;;16.00;14.00;;;;;28.49;44.03;99029.94;5020085;28;9575;-73
2021/01/05 08:20:31;;;;;;;;;15.00;13.25;;;;;28.51;44.05;99027.63;5019162;28;8829;-74
2021/01/05 08:23:02;;;;;;;;;14.50;11.00;;;;;28.49;43.98;99016.34;5019294;28;8918;-74
2021/01/05 08:25:32;;;;;;;;;12.75;12.75;;;;;28.51;44.11;99018.69;5021090;28;8848;-75
2021/01/05 08:28:01;;;;;;;;;12.25;10.50;;;;;28.56;44.05;99021.81;5020647;28;8863;-75
2021/01/05 08:30:36;;;;;;;;;14.25;12.00;;;;;28.57;43.93;99017.94;5018979;28;8867;-75
2021/01/05 08:33:10;;;;;;;;;8.00;7.00;;;;;28.56;43.78;99021.81;5011122;28;9715;-75
2021/01/05 08:35:38;;;;;;;;;11.75;11.75;;;;;28.58;42.91;99016.78;5014619;28;8844;-76
2021/01/05 08:38:10;;;;;;;;;12.25;11.50;;;;;28.63;43.97;99017.56;5012967;28;8958;-75
2021/01/05 08:40:38;;;;;;;;;13.75;11.00;;;;;28.61;43.09;99012.50;5015282;28;8845;-73
2021/01/05 08:43:11;;;;;;;;;10.25;9.75;;;;;28.70;43.96;99023.03;5013121;28;8863;-73
2021/01/05 08:45:41;;;;;;;;;7.00;7.00;;;;;28.53;43.48;99000.09;5016348;28;8840;-72
2021/01/05 08:48:09;;;;;;;;;11.25;10.00;;;;;28.67;43.95;99023.78;5005393;28;8838;-73
2021/01/05 08:50:38;;;;;;;;;10.25;9.00;;;;;28.61;43.86;99026.09;5018900;28;8825;-73
2021/01/05 08:53:09;;;;;;;;;9.75;9.75;;;;;28.56;43.48;99021.81;5020318;28;8931;-73
2021/01/05 08:55:39;;;;;;;;;12.75;10.00;;;;;28.61;43.52;99028.81;5019301;28;8834;-73
2021/01/05 08:58:08;;;;;;;;;17.25;16.50;;;;;28.67;43.66;99038.13;5016646;28;8840;-73
2021/01/05 09:00:37;;;;;;;;;13.25;12.50;;;;;28.70;43.66;99039.31;5021871;28;9636;-73
2021/01/05 09:03:06;;;;;;;;;16.25;15.25;;;;;28.75;43.65;99041.66;5023912;28;8858;-73
2021/01/05 09:05:50;;;;;;;;;12.75;12.75;;;;;28.77;43.81;99042.06;5018329;28;8847;-72
2021/01/05 09:08:18;;;;;;;;;16.50;14.75;;;;;28.67;43.47;99035.44;5025606;28;8830;-72
2021/01/05 09:10:47;;;;;;;;;14.25;14.25;;;;;28.71;43.77;99046.31;5023189;28;8846;-73
2021/01/05 09:13:17;;;;;;;;;8.50;7.50;;;;;28.71;43.83;99049.78;5020521;28;9577;-73
2021/01/05 09:15:46;;;;;;;;;17.25;14.75;;;;;28.72;43.71;99056.78;5018525;28;8880;-73
2021/01/05 09:18:14;;;;;;;;;13.75;12.00;;;;;28.69;43.52;99052.09;5018818;28;8932;-72
2021/01/05 09:20:43;;;;;;;;;16.25;11.25;;;;;28.61;43.66;99045.09;4996197;28;8840;-72
2021/01/05 09:23:12;;;;;;;;;6.25;6.25;;;;;28.45;43.57;99020.22;5021801;28;8862;-74
2021/01/05 09:25:41;;;;;;;;;14.50;13.75;;;;;28.41;43.62;99033.75;5019435;28;8838;-73
2021/01/05 09:28:09;;;;;;;;;13.00;11.25;;;;;28.69;43.78;99056.75;5018265;28;8836;-74
2021/01/05 09:30:38;;;;;;;;;16.50;15.25;;;;;28.68;43.85;99063.34;5018805;28;8938;-72
2021/01/05 09:33:06;;;;;;;;;13.50;12.25;;;;;28.68;43.65;99068.78;5016633;28;9635;-73
2021/01/05 09:35:35;;;;;;;;;16.25;14.00;;;;;28.65;43.50;99067.59;5020791;28;8964;-72
2021/01/05 09:38:08;;;;;;;;;15.25;13.00;;;;;28.64;43.63;99071.47;5021948;28;8854;-74
2021/01/05 09:40:40;;;;;;;;;15.25;14.00;;;;;28.61;43.53;99066.03;5025782;28;9680;-73
2021/01/05 09:43:11;;;;;;;;;12.50;12.00;;;;;28.52;43.63;99059.03;5029718;28;8849;-71
2021/01/05 09:45:40;;;;;;;;;11.75;10.25;;;;;28.51;43.50;99062.13;5031012;28;8856;-71
2021/01/05 09:48:14;;;;;;;;;14.00;10.25;;;;;28.51;43.70;99073.75;5029509;28;8862;-74
2021/01/05 09:50:45;;;;;;;;;11.75;10.75;;;;;28.54;43.52;99077.63;5026603;28;8834;-71
2021/01/05 09:53:15;;;;;;;;;11.25;9.25;;;;;28.54;43.47;99075.72;5025796;28;9587;-72
2021/01/05 09:55:43;;;;;;;;;12.50;12.00;;;;;28.51;43.31;99083.81;5027541;28;8856;-73
2021/01/05 09:58:11;;;;;;;;;13.00;11.50;;;;;28.58;43.37;99081.94;5026395;28;8857;-72
2021/01/05 10:00:40;;;;;;;;;11.50;11.50;;;;;28.57;43.21;99080.38;5027675;28;8833;-71
2021/01/05 10:03:09;;;;;;;;;12.50;12.50;;;;;28.60;43.71;99081.56;5037687;28;9606;-71
2021/01/05 10:05:37;;;;;;;;;17.00;13.50;;;;;28.46;43.60;99067.91;5037147;28;8838;-73
2021/01/05 10:08:05;;;;;;;;;13.75;12.25;;;;;28.55;43.69;99079.19;5037470;28;8882;-72
2021/01/05 10:10:34;;;;;;;;;10.50;9.50;;;;;28.43;43.76;99072.16;5037860;28;8845;-75
2021/01/05 10:13:02;;;;;;;;;14.25;11.75;;;;;28.46;43.77;99087.66;5026171;28;8975;-71
2021/01/05 10:15:30;;;;;;;;;14.50;12.50;;;;;28.38;43.85;99086.06;5022372;28;8843;-71
2021/01/05 10:18:01;;;;;;;;;15.75;14.25;;;;;28.38;43.91;99101.56;5019554;28;8848;-72
2021/01/05 10:20:31;;;;;;;;;14.75;11.75;;;;;28.34;43.83;99109.69;5025440;28;9574;-71
2021/01/05 10:22:59;;;;;;;;;12.75;12.75;;;;;28.30;43.93;99105.38;5025865;28;8874;-70
2021/01/05 10:25:27;;;;;;;;;15.50;14.00;;;;;28.25;43.73;99101.09;5026905;28;8908;-70
2021/01/05 10:27:56;;;;;;;;;15.00;15.00;;;;;28.15;43.78;99099.03;5025351;28;8895;-71
2021/01/05 10:30:24;;;;;;;;;13.25;12.25;;;;;28.24;44.08;99111.16;5023994;28;9726;-72
2021/01/05 10:32:53;;;;;;;;;13.50;11.75;;;;;28.20;44.12;99102.19;5023742;28;8830;-71
2021/01/05 10:35:23;;;;;;;;;12.75;10.00;;;;;28.18;44.13;99103.72;5019750;28;8841;-72
2021/01/05 10:37:52;;;;;;;;;10.67;10.67;;;;;28.13;44.04;99107.53;5019703;28;8852;-72
2021/01/05 10:40:21;;;;;;;;;12.75;9.50;;;;;28.09;44.23;99106.72;5025630;28;8896;-72
2021/01/05 10:42:50;;;;;;;;;8.25;8.25;;;;;28.01;44.39;99094.25;5024911;28;8937;-71
2021/01/05 10:45:23;;;;;;;;;11.00;11.00;;;;;27.92;44.35;99099.22;5025905;28;8846;-71
2021/01/05 10:47:52;;;;;;;;;11.50;8.50;;;;;27.91;44.38;99111.22;5020478;28;9565;-71
2021/01/05 10:50:23;;;;;;;;;11.00;9.00;;;;;27.80;44.55;99102.97;5017813;28;8843;-72
2021/01/05 10:52:52;;;;;;;;;9.25;9.25;;;;;27.81;44.50;99111.91;5018006;28;8953;-71
2021/01/05 10:55:22;;;;;;;;;9.00;9.00;;;;;27.75;44.73;99111.44;5021188;28;8836;-74
2021/01/05 10:57:51;;;;;;;;;12.50;9.50;;;;;27.69;44.68;99106.72;5020339;28;8941;-71
2021/01/05 11:00:22;;;;;;;;;6.00;5.25;;;;;27.67;44.57;99115.22;5018038;28;8846;-70
2021/01/05 11:02:50;;;;;;;;;7.75;6.50;;;;;27.65;44.60;99114.81;5021570;28;8842;-74
2021/01/05 11:05:19;;;;;;;;;7.25;7.25;;;;;27.58;44.70;99104.66;5022508;28;8862;-71
2021/01/05 11:07:52;;;;;;;;;10.00;10.00;;;;;27.61;44.86;99119.44;5021398;28;8956;-74
2021/01/05 11:10:22;;;;;;;;;7.00;7.00;;;;;27.57;44.74;99122.06;5021685;28;8848;-72
2021/01/05 11:12:50;;;;;;;;;12.00;10.00;;;;;27.54;44.97;99125.53;5023689;28;8828;-71
2021/01/05 11:15:18;;;;;;;;;4.00;4.00;;;;;27.47;44.99;99121.94;5018123;28;8830;-71
2021/01/05 11:17:47;;;;;;;;;8.00;8.00;;;;;27.45;44.97;99125.03;5020311;28;8883;-71
2021/01/05 11:20:17;;;;;;;;;10.75;7.75;;;;;27.39;44.95;99117.59;5021718;28;8946;-71
2021/01/05 11:22:48;;;;;;;;;3.50;3.50;;;;;27.29;45.01;99122.56;5023552;28;8860;-71
2021/01/05 11:25:18;;;;;;;;;8.25;7.75;;;;;27.29;45.14;99130.69;5023007;28;8834;-72
2021/01/05 11:27:46;;;;;;;;;9.00;8.25;;;;;27.25;45.02;99127.16;5018418;28;8927;-71
2021/01/05 11:30:24;;;;;;;;;7.25;4.25;;;;;27.17;45.20;99119.31;5018901;28;8833;-72
2021/01/05 11:32:53;;;;;;;;;11.50;8.75;;;;;27.19;45.13;99133.25;5003721;28;8840;-72
2021/01/05 11:35:22;;;;;;;;;10.75;10.75;;;;;27.10;45.27;99122.69;5014813;28;8921;-71
2021/01/05 11:37:50;;;;;;;;;10.25;10.25;;;;;27.01;45.38;99124.13;5016923;28;8897;-72
2021/01/05 11:40:24;;;;;;;;;10.50;9.75;;;;;26.97;45.58;99129.47;5021107;28;8864;-72
2021/01/05 11:42:54;;;;;;;;;10.00;10.00;;;;;27.05;45.82;99141.97;5015222;28;9668;-71
2021/01/05 11:45:22;;;;;;;;;13.50;12.25;;;;;26.98;45.57;99136.47;5020347;28;8850;-71
2021/01/05 11:47:51;;;;;;;;;17.00;14.00;;;;;27.02;45.58;99145.41;5018795;28;8838;-72
2021/01/05 11:50:20;;;;;;;;;22.75;16.50;;;;;26.96;45.49;99144.13;5019083;28;8871;-71
2021/01/05 11:52:48;;;;;;;;;16.50;16.50;;;;;26.83;45.88;99137.38;5020065;28;9557;-72